Time;durP1;ratioP1;P1;durP2;ratioP2;P2;SDS_P1;SDS_P2;PMS_P1;PMS_P2;Temp;Humidity;BMP_temperature;BMP_pressure;BME280_temperature;BME280_humidity;BME280_pressure;Samples;Min_cycle;Max_cycle;Signal;HPM_P1;HPM_P2
2022/05/20 00:02:16;;;;;;;7.23;6.67;;;18.80;99.90;;;;;;6026628;23;20466;-79
2022/05/20 00:04:43;;;;;;;7.83;6.80;;;18.70;99.90;;;;;;6026370;23;20800;-79
2022/05/20 00:07:10;;;;;;;6.90;6.40;;;18.60;99.90;;;;;;6031954;23;20820;-79
2022/05/20 00:09:38;;;;;;;7.00;6.30;;;18.60;99.90;;;;;;6031415;23;20475;-79
2022/05/20 00:12:07;;;;;;;7.10;6.43;;;18.50;99.90;;;;;;6029448;23;20995;-79
2022/05/20 00:14:34;;;;;;;7.23;6.60;;;18.40;99.90;;;;;;6025600;23;20507;-79
2022/05/20 00:17:04;;;;;;;7.57;6.67;;;18.30;99.90;;;;;;6027892;23;20448;-79
2022/05/20 00:19:32;;;;;;;7.10;6.50;;;18.20;99.90;;;;;;6030836;23;20572;-79
2022/05/20 00:21:59;;;;;;;7.33;6.03;;;18.10;99.90;;;;;;6028569;23;20531;-79
2022/05/20 00:24:27;;;;;;;7.63;7.13;;;18.00;99.90;;;;;;6027614;23;20492;-79
2022/05/20 00:26:56;;;;;;;6.80;6.20;;;18.00;99.90;;;;;;6018909;23;20432;-79
2022/05/20 00:29:25;;;;;;;7.43;6.83;;;18.00;99.90;;;;;;6029216;23;20471;-79
2022/05/20 00:31:53;;;;;;;7.33;6.63;;;18.00;99.90;;;;;;6027746;23;20590;-79
2022/05/20 00:34:20;;;;;;;7.70;7.10;;;18.00;99.90;;;;;;6030992;23;20607;-79
2022/05/20 00:36:46;;;;;;;7.07;6.47;;;18.00;99.90;;;;;;6028349;23;20627;-79
2022/05/20 00:39:14;;;;;;;7.00;6.50;;;17.90;99.90;;;;;;6030673;23;20483;-79
2022/05/20 00:41:41;;;;;;;7.87;7.17;;;17.90;99.90;;;;;;6028968;23;20456;-79
2022/05/20 00:44:08;;;;;;;7.07;6.57;;;17.90;99.90;;;;;;6026093;23;20516;-79
2022/05/20 00:46:36;;;;;;;8.10;7.10;;;17.90;99.90;;;;;;6029981;23;20440;-79
2022/05/20 00:49:08;;;;;;;7.70;7.13;;;17.90;99.90;;;;;;6031260;23;20506;-79
2022/05/20 00:51:40;;;;;;;8.30;7.60;;;17.90;99.90;;;;;;6029623;23;20466;-79
2022/05/20 00:54:10;;;;;;;7.40;6.80;;;17.80;99.90;;;;;;6027456;23;20428;-79
2022/05/20 00:56:41;;;;;;;8.10;7.40;;;17.70;99.90;;;;;;6027919;23;20440;-79
2022/05/20 00:59:11;;;;;;;9.27;8.57;;;17.70;99.90;;;;;;6030558;23;20432;-79
2022/05/20 01:01:39;;;;;;;8.00;7.40;;;17.70;99.90;;;;;;6026657;23;20456;-79
2022/05/20 01:04:06;;;;;;;7.77;7.10;;;17.70;99.90;;;;;;6032614;23;20519;-79
2022/05/20 01:06:34;;;;;;;8.80;8.10;;;17.60;99.90;;;;;;6030268;23;20471;-79
2022/05/20 01:09:01;;;;;;;8.07;7.23;;;17.60;99.90;;;;;;6030704;23;20456;-79
2022/05/20 01:11:28;;;;;;;9.20;8.40;;;17.60;99.90;;;;;;6032453;23;20819;-79
2022/05/20 01:13:55;;;;;;;9.17;8.50;;;17.50;99.90;;;;;;6029406;23;20440;-79
2022/05/20 01:16:22;;;;;;;8.60;7.90;;;17.50;99.90;;;;;;6031399;23;20436;-79
2022/05/20 01:18:53;;;;;;;9.40;8.60;;;17.50;99.90;;;;;;6029301;23;20458;-79
2022/05/20 01:21:20;;;;;;;8.23;7.63;;;17.50;99.90;;;;;;6031155;23;21006;-79
2022/05/20 01:23:49;;;;;;;9.50;8.80;;;17.50;99.90;;;;;;6031585;23;20467;-79
2022/05/20 01:26:16;;;;;;;9.23;8.30;;;17.50;99.90;;;;;;6032817;23;20482;-79
2022/05/20 01:28:43;;;;;;;9.10;8.40;;;17.40;99.90;;;;;;6030157;23;20450;-78
2022/05/20 01:31:13;;;;;;;8.93;8.23;;;17.40;99.90;;;;;;6030759;23;21019;-78
2022/05/20 01:33:43;;;;;;;10.27;9.40;;;17.40;99.90;;;;;;6030221;23;20456;-78
2022/05/20 01:36:12;;;;;;;9.10;8.37;;;17.40;99.90;;;;;;6031270;23;20455;-79
2022/05/20 01:38:40;;;;;;;9.73;8.97;;;17.30;99.90;;;;;;6031661;23;20464;-78
2022/05/20 01:41:13;;;;;;;9.60;8.80;;;17.30;99.90;;;;;;6028347;23;20543;-79
2022/05/20 01:43:55;;;;;;;9.30;8.50;;;17.20;99.90;;;;;;6031706;23;20447;-79
2022/05/20 01:46:33;;;;;;;10.93;10.03;;;17.20;99.90;;;;;;6031098;23;20468;-79
2022/05/20 01:49:21;;;;;;;9.80;9.00;;;17.20;99.90;;;;;;6029464;23;20433;-79
2022/05/20 01:51:52;;;;;;;9.50;8.77;;;17.20;99.90;;;;;;6014328;23;20467;-79
2022/05/20 01:54:26;;;;;;;9.00;8.23;;;17.30;99.90;;;;;;6027503;23;20554;-79
2022/05/20 01:56:57;;;;;;;8.80;8.10;;;17.30;99.90;;;;;;6031529;23;20524;-79
2022/05/20 01:59:28;;;;;;;9.80;8.90;;;17.30;99.90;;;;;;6029015;23;20535;-79
2022/05/20 02:01:59;;;;;;;10.50;9.60;;;17.40;99.90;;;;;;6030628;23;20685;-79
2022/05/20 02:04:33;;;;;;;9.30;8.60;;;17.40;99.90;;;;;;6028213;23;20439;-79
2022/05/20 02:07:05;;;;;;;9.50;8.60;;;17.40;99.90;;;;;;6030590;23;20452;-79
2022/05/20 02:09:38;;;;;;;9.47;8.63;;;17.40;99.90;;;;;;6030275;23;20452;-79
2022/05/20 02:12:07;;;;;;;9.93;9.13;;;17.40;99.90;;;;;;6030749;23;20480;-79
2022/05/20 02:14:39;;;;;;;10.07;9.17;;;17.30;99.90;;;;;;6029727;23;20442;-79
2022/05/20 02:17:11;;;;;;;8.93;8.33;;;17.30;99.90;;;;;;6030370;23;20444;-79
2022/05/20 02:19:42;;;;;;;9.50;8.80;;;17.20;99.90;;;;;;6031861;23;20456;-79
2022/05/20 02:22:14;;;;;;;9.67;8.97;;;17.20;99.90;;;;;;6030389;23;20436;-79
2022/05/20 02:24:43;;;;;;;10.80;9.90;;;17.10;99.90;;;;;;6030418;23;20854;-79
2022/05/20 02:27:18;;;;;;;11.70;10.70;;;17.00;99.90;;;;;;6030673;23;21083;-79
2022/05/20 02:29:49;;;;;;;11.00;10.13;;;17.10;99.90;;;;;;6030246;23;20682;-79
2022/05/20 02:32:23;;;;;;;10.30;9.53;;;17.00;99.90;;;;;;6028239;23;20437;-79
2022/05/20 02:34:52;;;;;;;10.70;9.90;;;17.00;99.90;;;;;;6031524;23;21018;-79
2022/05/20 02:37:24;;;;;;;9.90;9.10;;;16.90;99.90;;;;;;6029762;23;20937;-79
2022/05/20 02:39:51;;;;;;;11.07;10.07;;;16.90;99.90;;;;;;6029687;23;20447;-79
2022/05/20 02:42:20;;;;;;;11.10;10.30;;;16.80;99.90;;;;;;6029674;23;20482;-79
2022/05/20 02:44:47;;;;;;;10.97;10.07;;;16.80;99.90;;;;;;6032047;23;20586;-79
2022/05/20 02:47:14;;;;;;;11.80;10.67;;;16.80;99.90;;;;;;6028698;23;20930;-79
2022/05/20 02:49:42;;;;;;;11.60;10.73;;;16.90;99.90;;;;;;6029240;23;20574;-79
2022/05/20 02:52:09;;;;;;;11.70;10.70;;;16.90;99.90;;;;;;6029507;23;20440;-79
2022/05/20 02:54:36;;;;;;;10.67;9.70;;;16.90;99.90;;;;;;6024765;23;20449;-79
2022/05/20 02:57:04;;;;;;;10.37;9.57;;;17.00;99.90;;;;;;6030887;23;20440;-79
2022/05/20 03:05:02;;;;;;;10.40;9.53;;;17.00;99.90;;;;;;6020821;23;20482;-79
2022/05/20 03:07:30;;;;;;;10.63;9.73;;;17.00;99.90;;;;;;6028469;23;20451;-79
2022/05/20 03:09:56;;;;;;;10.63;9.73;;;17.00;99.90;;;;;;6031300;23;20479;-79
2022/05/20 03:12:24;;;;;;;9.83;9.03;;;17.00;99.90;;;;;;6029020;23;20515;-79
2022/05/20 03:14:52;;;;;;;9.77;8.87;;;17.00;99.90;;;;;;6027618;23;20454;-79
2022/05/20 03:17:19;;;;;;;10.70;9.77;;;17.00;99.90;;;;;;6028698;23;20531;-79
2022/05/20 03:19:46;;;;;;;11.23;10.33;;;17.00;99.90;;;;;;6029775;23;21105;-79
2022/05/20 03:22:13;;;;;;;11.67;10.60;;;16.90;99.90;;;;;;6019161;23;20536;-79
2022/05/20 03:24:41;;;;;;;10.67;9.77;;;17.00;99.90;;;;;;6027023;23;20903;-79
2022/05/20 03:27:08;;;;;;;10.83;9.83;;;17.00;99.90;;;;;;6029574;23;20957;-79
2022/05/20 03:29:35;;;;;;;10.03;9.20;;;17.00;99.90;;;;;;6028844;23;20527;-79
2022/05/20 03:32:04;;;;;;;10.20;9.30;;;17.00;99.90;;;;;;6028155;23;20492;-79
2022/05/20 03:34:31;;;;;;;10.80;9.83;;;17.00;99.90;;;;;;6026350;23;20531;-79
2022/05/20 03:36:58;;;;;;;10.40;9.70;;;17.00;99.90;;;;;;6030104;23;20467;-79
2022/05/20 03:39:25;;;;;;;10.73;9.83;;;17.00;99.90;;;;;;6030228;23;20737;-79
2022/05/20 03:41:53;;;;;;;11.17;10.33;;;17.00;99.90;;;;;;6027397;23;20440;-79
2022/05/20 03:44:20;;;;;;;10.90;9.97;;;17.10;99.90;;;;;;6027693;23;20432;-79
2022/05/20 03:46:51;;;;;;;11.97;10.97;;;17.10;99.90;;;;;;6021084;23;20433;-79
2022/05/20 03:49:21;;;;;;;11.00;10.10;;;17.20;99.90;;;;;;6027309;23;20780;-79
2022/05/20 03:51:49;;;;;;;10.77;9.80;;;17.20;99.90;;;;;;6018871;23;20476;-79
2022/05/20 03:54:18;;;;;;;11.40;10.40;;;17.30;99.90;;;;;;6025987;23;20538;-79
2022/05/20 03:56:45;;;;;;;12.47;11.33;;;17.30;99.90;;;;;;6030751;23;20487;-79
2022/05/20 03:59:12;;;;;;;11.83;10.83;;;17.30;99.90;;;;;;6026090;23;20433;-79
2022/05/20 04:01:59;;;;;;;12.50;11.50;;;17.20;99.90;;;;;;6027281;23;20464;-79
2022/05/20 04:04:31;;;;;;;11.53;10.53;;;17.30;99.90;;;;;;6026534;23;20464;-79
2022/05/20 04:06:59;;;;;;;12.10;10.93;;;17.20;99.90;;;;;;6021626;23;20434;-79
2022/05/20 04:09:26;;;;;;;12.70;11.60;;;17.20;99.90;;;;;;6029854;23;20443;-79
2022/05/20 04:11:55;;;;;;;11.87;11.07;;;17.20;99.90;;;;;;6029575;23;20519;-79
2022/05/20 04:14:23;;;;;;;12.07;10.97;;;17.30;99.90;;;;;;6026604;23;20615;-79
2022/05/20 04:16:55;;;;;;;11.37;10.47;;;17.30;99.90;;;;;;6029163;23;20448;-79
2022/05/20 04:19:23;;;;;;;11.60;10.80;;;17.30;99.90;;;;;;6030810;23;20440;-79
2022/05/20 04:21:52;;;;;;;10.80;10.00;;;17.30;99.90;;;;;;6028966;23;20438;-79
2022/05/20 04:24:19;;;;;;;11.00;10.10;;;17.40;99.90;;;;;;6023005;23;20436;-76
2022/05/20 04:26:46;;;;;;;10.73;9.83;;;17.40;99.90;;;;;;6019380;23;20428;-75
2022/05/20 04:29:13;;;;;;;10.57;9.67;;;17.40;99.90;;;;;;6028014;23;20452;-75
2022/05/20 04:31:43;;;;;;;11.40;10.30;;;17.40;99.90;;;;;;6026351;23;20955;-77
2022/05/20 04:34:10;;;;;;;9.90;9.00;;;17.40;99.90;;;;;;6026588;23;20532;-75
2022/05/20 04:36:37;;;;;;;10.97;10.00;;;17.40;99.90;;;;;;6029953;23;20432;-75
2022/05/20 04:39:06;;;;;;;11.27;10.27;;;17.40;99.90;;;;;;6027780;23;20443;-75
2022/05/20 04:47:04;;;;;;;12.13;10.40;;;17.20;99.90;;;;;;6027624;23;20439;-75
2022/05/20 04:49:32;;;;;;;12.70;11.50;;;17.20;99.90;;;;;;6031826;23;20468;-75
2022/05/20 04:52:01;;;;;;;13.50;12.50;;;17.20;99.90;;;;;;6025746;23;20456;-75
2022/05/20 04:57:21;;;;;;;12.90;11.83;;;17.10;99.90;;;;;;6022071;23;20439;-75
2022/05/20 04:59:48;;;;;;;13.13;12.03;;;17.00;99.90;;;;;;6024620;23;20459;-75
2022/05/20 05:02:15;;;;;;;12.80;11.80;;;17.10;99.90;;;;;;6015429;23;20507;-74
2022/05/20 05:04:42;;;;;;;12.77;11.77;;;17.10;99.90;;;;;;6025768;23;20527;-74
2022/05/20 05:07:11;;;;;;;11.27;10.43;;;17.10;99.90;;;;;;6027068;23;20458;-75
2022/05/20 05:09:41;;;;;;;12.10;11.17;;;17.10;99.90;;;;;;6028143;23;20478;-74
2022/05/20 05:12:09;;;;;;;12.23;11.00;;;17.20;99.90;;;;;;6027173;23;20489;-74
2022/05/20 05:14:37;;;;;;;11.50;10.40;;;17.20;99.90;;;;;;6027933;23;20446;-74
2022/05/20 05:17:06;;;;;;;11.57;10.53;;;17.20;99.90;;;;;;6025719;23;20964;-74
2022/05/20 05:19:36;;;;;;;11.33;10.40;;;17.30;99.90;;;;;;6026630;23;20519;-75
2022/05/20 05:22:04;;;;;;;11.97;10.97;;;17.40;99.90;;;;;;6022219;23;20529;-75
2022/05/20 05:24:31;;;;;;;10.93;9.93;;;17.50;99.90;;;;;;6023054;23;20444;-74
2022/05/20 05:26:59;;;;;;;11.70;10.70;;;17.60;99.90;;;;;;6017103;23;20440;-75
2022/05/20 05:29:27;;;;;;;11.67;10.17;;;17.70;99.90;;;;;;6029525;23;20468;-74
2022/05/20 05:31:54;;;;;;;10.63;9.73;;;17.80;99.90;;;;;;6011646;23;20564;-74
2022/05/20 05:34:21;;;;;;;11.10;10.20;;;17.80;99.90;;;;;;6025381;23;20436;-74
2022/05/20 05:36:48;;;;;;;10.20;9.50;;;18.00;99.90;;;;;;6022903;23;20775;-73
2022/05/20 05:39:15;;;;;;;10.60;9.50;;;18.00;99.90;;;;;;6027459;23;20441;-73
2022/05/20 05:41:42;;;;;;;11.33;10.33;;;18.10;99.90;;;;;;6020845;23;20448;-74
2022/05/20 05:44:10;;;;;;;11.83;10.70;;;18.20;99.90;;;;;;6006036;23;20452;-74
2022/05/20 05:46:37;;;;;;;11.80;10.70;;;18.30;99.90;;;;;;6026349;23;20429;-74
2022/05/20 05:49:04;;;;;;;10.10;9.30;;;18.40;99.90;;;;;;6021930;23;20945;-74
2022/05/20 05:51:31;;;;;;;10.13;9.20;;;18.60;99.90;;;;;;6028086;23;20464;-74
2022/05/20 05:53:58;;;;;;;10.17;9.40;;;18.70;99.90;;;;;;6023993;23;20448;-74
2022/05/20 05:56:25;;;;;;;10.70;9.90;;;18.80;99.90;;;;;;6022317;23;20520;-74
2022/05/20 05:58:52;;;;;;;10.33;9.23;;;19.00;99.90;;;;;;6027968;23;20567;-77
2022/05/20 06:01:21;;;;;;;9.50;8.70;;;19.10;99.90;;;;;;6028511;23;20470;-76
2022/05/20 06:03:48;;;;;;;10.47;9.47;;;19.20;99.90;;;;;;6025502;23;20441;-75
2022/05/20 06:06:15;;;;;;;9.83;8.93;;;19.30;99.90;;;;;;6023721;23;20442;-76
2022/05/20 06:08:42;;;;;;;9.77;9.03;;;19.50;99.90;;;;;;6023107;23;20457;-76
2022/05/20 06:11:09;;;;;;;10.30;9.50;;;19.50;99.90;;;;;;6028726;23;20471;-76
2022/05/20 06:13:36;;;;;;;8.93;8.23;;;19.60;99.90;;;;;;6017047;23;20523;-73
2022/05/20 06:16:03;;;;;;;9.80;9.00;;;19.80;99.90;;;;;;6018611;23;20469;-75
2022/05/20 06:18:32;;;;;;;10.03;9.23;;;19.90;99.90;;;;;;6024660;23;20447;-76
2022/05/20 06:20:59;;;;;;;11.90;8.87;;;19.90;99.90;;;;;;6028247;23;20478;-76
2022/05/20 06:23:26;;;;;;;9.40;8.60;;;20.10;99.90;;;;;;6027410;23;20523;-77
2022/05/20 06:25:53;;;;;;;9.27;8.47;;;20.20;99.90;;;;;;6028954;23;20434;-77
2022/05/20 06:28:21;;;;;;;8.53;7.83;;;20.30;99.90;;;;;;6024468;23;20448;-77
2022/05/20 06:30:48;;;;;;;10.03;9.07;;;20.50;99.90;;;;;;6025808;23;20474;-77
2022/05/20 06:33:15;;;;;;;8.13;7.40;;;20.70;99.90;;;;;;6028031;23;20520;-77
2022/05/20 06:41:12;;;;;;;7.67;6.97;;;21.30;99.90;;;;;;6028392;23;20451;-77
2022/05/20 06:43:40;;;;;;;7.50;6.90;;;21.40;99.90;;;;;;6030933;23;20436;-77
2022/05/20 06:46:07;;;;;;;7.47;6.97;;;21.50;99.90;;;;;;6030475;23;20515;-77
2022/05/20 06:48:44;;;;;;;8.20;7.50;;;21.60;99.90;;;;;;6026156;23;20453;-77
2022/05/20 06:51:14;;;;;;;6.83;6.10;;;21.70;99.90;;;;;;6024593;23;20467;-77
2022/05/20 06:53:40;;;;;;;6.60;6.10;;;21.90;99.90;;;;;;6029017;23;20441;-77
2022/05/20 06:56:08;;;;;;;7.27;6.67;;;22.00;99.90;;;;;;6028006;23;20442;-75
2022/05/20 06:58:35;;;;;;;7.60;6.73;;;22.10;99.90;;;;;;6026490;23;20539;-79
2022/05/20 07:01:04;;;;;;;7.53;7.00;;;22.20;99.90;;;;;;6019832;23;20507;-77
2022/05/20 07:03:31;;;;;;;7.60;6.20;;;22.40;99.90;;;;;;6021334;23;20440;-77
2022/05/20 07:05:58;;;;;;;7.23;6.63;;;22.60;99.90;;;;;;6027680;23;20444;-76
2022/05/20 07:08:26;;;;;;;6.60;6.10;;;22.70;99.90;;;;;;6027073;23;20439;-76
2022/05/20 07:10:53;;;;;;;6.47;5.97;;;22.80;99.90;;;;;;6017142;23;20466;-76
2022/05/20 07:13:20;;;;;;;6.40;5.80;;;22.90;99.90;;;;;;6028116;23;20437;-76
2022/05/20 07:15:47;;;;;;;6.07;5.60;;;23.00;99.90;;;;;;6013384;23;20512;-76
2022/05/20 07:18:15;;;;;;;7.07;6.20;;;23.10;99.90;;;;;;6024641;23;20467;-76
2022/05/20 07:20:42;;;;;;;5.90;5.40;;;23.40;99.90;;;;;;6023491;23;21814;-74
2022/05/20 07:23:09;;;;;;;6.30;5.80;;;23.60;99.90;;;;;;6016925;23;20436;-75
2022/05/20 07:25:38;;;;;;;6.13;5.63;;;23.90;99.90;;;;;;6025149;23;20939;-75
2022/05/20 07:28:06;;;;;;;5.93;5.40;;;24.40;99.90;;;;;;6018918;23;20444;-73
2022/05/20 07:30:34;;;;;;;5.67;5.27;;;24.80;99.90;;;;;;6015828;23;20558;-75
2022/05/20 07:33:01;;;;;;;7.20;5.70;;;25.30;99.90;;;;;;6026919;23;20444;-75
2022/05/20 07:35:28;;;;;;;5.57;5.17;;;25.70;99.90;;;;;;6024444;23;20523;-75
2022/05/20 07:37:56;;;;;;;6.03;5.50;;;26.00;99.90;;;;;;6030689;23;20444;-76
2022/05/20 07:40:23;;;;;;;5.83;5.33;;;26.30;99.90;;;;;;6027479;23;20476;-75
2022/05/20 07:42:51;;;;;;;6.03;5.00;;;26.80;99.90;;;;;;6028436;23;20444;-74
2022/05/20 07:45:18;;;;;;;8.37;5.03;;;27.20;99.90;;;;;;6025464;23;20991;-76
2022/05/20 07:47:46;;;;;;;7.53;4.97;;;27.70;99.90;;;;;;6022168;23;20444;-76
2022/05/20 07:50:14;;;;;;;5.30;4.90;;;28.20;99.90;;;;;;6027704;23;20459;-76
2022/05/20 07:55:33;;;;;;;6.13;5.20;;;29.10;99.90;;;;;;6023916;23;20443;-76
2022/05/20 07:58:02;;;;;;;7.60;5.17;;;29.30;99.90;;;;;;6026739;23;20534;-75
2022/05/20 08:00:30;;;;;;;7.83;5.10;;;29.40;99.90;;;;;;6026617;23;20453;-75
2022/05/20 08:03:00;;;;;;;6.10;4.90;;;29.70;99.90;;;;;;6021221;23;20441;-77
2022/05/20 08:05:27;;;;;;;5.80;4.90;;;30.00;99.90;;;;;;6031834;23;20443;-77
2022/05/20 08:07:59;;;;;;;5.10;4.50;;;30.30;99.90;;;;;;6025626;23;20459;-75
2022/05/20 08:10:28;;;;;;;5.50;5.00;;;30.80;99.90;;;;;;6021923;23;20488;-76
2022/05/20 08:12:55;;;;;;;5.20;4.70;;;30.90;99.90;;;;;;6031235;23;20554;-75
2022/05/20 08:15:25;;;;;;;5.43;4.83;;;30.80;99.90;;;;;;6034840;23;20455;-76
2022/05/20 08:17:52;;;;;;;5.03;4.63;;;31.10;99.90;;;;;;6051258;23;20456;-75
2022/05/20 08:20:25;;;;;;;4.97;4.47;;;31.40;99.60;;;;;;6036283;23;20463;-76
2022/05/20 08:22:53;;;;;;;5.03;4.53;;;31.60;99.50;;;;;;6027626;23;20579;-76
2022/05/20 08:25:21;;;;;;;7.27;4.50;;;32.00;99.90;;;;;;6044322;23;20440;-76
2022/05/20 08:27:47;;;;;;;4.77;4.37;;;32.30;98.70;;;;;;6033317;23;20447;-76
2022/05/20 08:30:18;;;;;;;4.10;3.80;;;32.40;95.80;;;;;;6034675;23;20460;-75
2022/05/20 08:32:46;;;;;;;4.50;3.80;;;32.60;91.20;;;;;;6035555;23;20475;-75
2022/05/20 08:35:13;;;;;;;5.77;3.70;;;32.50;90.30;;;;;;6038155;23;20852;-75
2022/05/20 08:37:43;;;;;;;5.17;4.67;;;32.50;86.50;;;;;;6028502;23;20467;-76
2022/05/20 08:40:12;;;;;;;5.43;3.90;;;32.60;91.30;;;;;;6027600;23;20468;-75
2022/05/20 08:42:41;;;;;;;4.13;3.47;;;32.40;79.60;;;;;;6040338;23;20505;-75
2022/05/20 08:45:09;;;;;;;4.60;3.80;;;32.30;79.00;;;;;;6032405;23;20448;-75
2022/05/20 08:47:42;;;;;;;5.30;4.80;;;32.30;78.10;;;;;;6025984;23;20431;-76
2022/05/20 08:50:14;;;;;;;3.77;3.47;;;32.50;76.80;;;;;;6026600;23;20514;-75
2022/05/20 08:52:42;;;;;;;4.70;4.20;;;32.10;74.80;;;;;;6020799;23;20476;-76
2022/05/20 08:55:10;;;;;;;4.10;3.70;;;32.20;77.00;;;;;;6024798;23;20438;-80
2022/05/20 08:57:38;;;;;;;4.73;4.23;;;32.00;74.00;;;;;;6013453;23;20448;-80
2022/05/20 09:00:07;;;;;;;5.77;4.30;;;32.00;76.10;;;;;;6018886;23;20460;-79
2022/05/20 09:02:34;;;;;;;6.70;4.67;;;31.90;75.00;;;;;;6029155;23;20540;-79
2022/05/20 09:05:00;;;;;;;5.43;4.27;;;32.10;76.10;;;;;;6019583;23;20463;-80
2022/05/20 09:08:03;;;;;;;8.67;4.33;;;32.30;75.10;;;;;;6014777;23;20467;-79
2022/05/20 09:10:42;;;;;;;4.00;3.70;;;32.50;74.90;;;;;;6016430;23;20463;-80
2022/05/20 09:13:20;;;;;;;4.23;3.83;;;32.50;70.70;;;;;;6024178;23;20492;-79
2022/05/20 09:15:57;;;;;;;6.60;4.13;;;32.20;71.10;;;;;;6011389;23;20463;-79
2022/05/20 09:18:34;;;;;;;3.50;3.20;;;32.30;71.50;;;;;;6020007;23;20455;-80
2022/05/20 09:21:01;;;;;;;4.67;4.00;;;32.10;71.00;;;;;;6026001;23;20467;-79
2022/05/20 09:23:29;;;;;;;5.23;3.70;;;32.10;70.90;;;;;;6015408;23;20436;-80
2022/05/20 09:26:03;;;;;;;4.70;4.30;;;32.30;70.50;;;;;;6025825;23;20443;-79
2022/05/20 09:28:36;;;;;;;4.23;3.83;;;32.80;70.60;;;;;;6027201;23;20543;-78
2022/05/20 09:31:12;;;;;;;6.80;3.90;;;33.30;69.30;;;;;;6026772;23;20443;-77
2022/05/20 09:33:40;;;;;;;6.50;4.40;;;33.70;70.20;;;;;;6023921;23;20444;-79
2022/05/20 09:36:07;;;;;;;4.20;3.90;;;33.60;68.10;;;;;;6022083;23;20457;-79
2022/05/20 09:38:38;;;;;;;5.00;3.70;;;33.30;68.60;;;;;;6026932;23;20464;-80
2022/05/20 09:41:15;;;;;;;5.00;3.80;;;32.80;68.70;;;;;;6020945;23;20428;-80
2022/05/20 09:43:44;;;;;;;4.70;4.30;;;32.80;67.70;;;;;;6026229;23;20440;-79
2022/05/20 09:46:29;;;;;;;4.80;4.37;;;32.80;68.40;;;;;;6025230;23;20855;-80
2022/05/20 09:49:04;;;;;;;3.80;3.43;;;32.80;65.80;;;;;;6019318;23;20459;-79
2022/05/20 09:51:39;;;;;;;3.60;3.30;;;32.60;65.50;;;;;;6029592;23;20451;-79
2022/05/20 09:54:22;;;;;;;6.10;3.90;;;33.00;66.50;;;;;;6022083;23;20799;-79
2022/05/20 09:56:59;;;;;;;5.20;4.10;;;33.50;66.70;;;;;;6026664;23;20485;-80
2022/05/20 09:59:46;;;;;;;4.93;4.07;;;33.30;65.30;;;;;;6022569;23;20893;-80
2022/05/20 10:02:23;;;;;;;4.70;4.30;;;33.40;68.30;;;;;;6023168;23;20448;-81
2022/05/20 10:05:09;;;;;;;4.67;4.27;;;33.60;66.10;;;;;;6024404;23;20436;-79
2022/05/20 10:07:48;;;;;;;4.30;3.90;;;33.70;67.40;;;;;;6027349;23;20444;-79
2022/05/20 10:10:24;;;;;;;5.13;4.47;;;34.50;67.20;;;;;;6018717;23;20448;-79
2022/05/20 10:12:52;;;;;;;5.37;4.00;;;34.80;65.30;;;;;;6019215;23;20464;-79
2022/05/20 10:15:25;;;;;;;5.40;4.03;;;34.30;63.30;;;;;;6025818;23;20479;-79
2022/05/20 10:18:10;;;;;;;5.10;4.00;;;33.80;65.10;;;;;;6021682;23;20441;-79
2022/05/20 10:20:43;;;;;;;7.93;4.63;;;34.00;66.40;;;;;;6024020;23;20552;-78
2022/05/20 10:23:17;;;;;;;5.00;4.07;;;34.50;67.70;;;;;;6019492;23;20540;-78
2022/05/20 10:25:53;;;;;;;4.37;3.97;;;34.30;64.40;;;;;;6027935;23;20547;-78
2022/05/20 10:34:05;;;;;;;5.13;4.20;;;34.20;65.30;;;;;;6025378;23;20448;-79
2022/05/20 10:36:39;;;;;;;4.90;4.50;;;34.90;66.40;;;;;;6027447;23;20591;-78
2022/05/20 10:39:15;;;;;;;5.03;4.53;;;35.00;64.30;;;;;;6027150;23;21033;-79
2022/05/20 10:41:56;;;;;;;5.00;3.90;;;34.70;65.00;;;;;;6021247;23;21157;-79
2022/05/20 10:50:24;;;;;;;5.67;4.03;;;34.10;63.40;;;;;;6026197;23;20467;-79
2022/05/20 10:53:07;;;;;;;4.40;3.80;;;34.50;63.50;;;;;;6025794;23;20951;-79
2022/05/20 10:55:50;;;;;;;4.57;4.17;;;34.80;62.00;;;;;;6020231;23;20433;-79
2022/05/20 10:58:53;;;;;;;5.10;4.70;;;34.80;59.40;;;;;;6018559;23;20464;-80
2022/05/20 11:01:30;;;;;;;5.47;4.97;;;33.80;65.80;;;;;;6018790;23;20520;-80
2022/05/20 11:04:22;;;;;;;6.13;4.67;;;33.90;68.90;;;;;;6020364;23;20482;-80
2022/05/20 11:07:10;;;;;;;5.53;4.50;;;34.50;67.90;;;;;;6017080;23;20520;-79
2022/05/20 11:09:46;;;;;;;4.40;4.00;;;35.00;67.20;;;;;;6024864;23;20463;-75
2022/05/20 11:12:22;;;;;;;4.70;4.30;;;35.80;65.30;;;;;;6014792;23;20464;-75
2022/05/20 11:15:21;;;;;;;5.50;5.00;;;36.60;65.70;;;;;;6019437;23;20766;-76
2022/05/20 11:18:23;;;;;;;5.20;4.80;;;37.30;63.40;;;;;;6022093;23;20502;-75
2022/05/20 11:21:06;;;;;;;4.77;4.37;;;38.00;62.70;;;;;;6008197;23;20447;-75
2022/05/20 11:23:48;;;;;;;4.87;4.37;;;38.60;62.70;;;;;;6023514;23;21005;-75
2022/05/20 11:26:26;;;;;;;5.07;4.67;;;38.90;60.40;;;;;;6024385;23;20464;-76
2022/05/20 11:29:16;;;;;;;5.13;4.73;;;38.90;59.70;;;;;;6023019;23;21039;-76
2022/05/20 11:31:49;;;;;;;5.27;4.43;;;38.90;59.60;;;;;;6024403;23;20787;-75
2022/05/20 11:34:41;;;;;;;5.00;4.60;;;38.80;60.10;;;;;;6024862;23;20443;-75
2022/05/20 11:37:39;;;;;;;4.80;4.40;;;39.00;59.00;;;;;;6002782;23;20468;-75
2022/05/20 11:40:23;;;;;;;5.10;4.70;;;39.40;58.20;;;;;;6006944;23;20436;-75
2022/05/20 11:43:10;;;;;;;6.03;4.97;;;39.80;57.50;;;;;;6030673;23;20460;-75
2022/05/20 11:45:49;;;;;;;5.07;4.57;;;39.80;58.20;;;;;;6016471;23;20470;-75
2022/05/20 11:48:42;;;;;;;6.90;4.20;;;40.00;58.40;;;;;;6019634;23;20461;-75
2022/05/20 11:51:26;;;;;;;5.97;4.43;;;40.10;56.90;;;;;;6019628;23;20494;-76
2022/05/20 11:53:58;;;;;;;5.03;4.50;;;40.20;57.20;;;;;;6022060;23;20472;-76
2022/05/20 11:56:31;;;;;;;5.80;4.40;;;40.60;55.50;;;;;;6027324;23;20436;-77
2022/05/20 11:59:06;;;;;;;6.97;4.30;;;40.70;54.00;;;;;;6026131;23;20832;-75
2022/05/20 12:01:34;;;;;;;4.70;4.30;;;40.50;54.20;;;;;;6022964;23;20501;-75
2022/05/20 12:04:08;;;;;;;5.83;4.20;;;40.40;54.70;;;;;;6026311;23;20864;-75
2022/05/20 12:06:42;;;;;;;4.37;4.07;;;40.60;54.60;;;;;;6019474;23;20497;-75
2022/05/20 12:09:35;;;;;;;5.10;4.37;;;40.80;55.10;;;;;;6023057;23;20518;-77
2022/05/20 13:40:10;;;;;;;7.50;3.50;;;42.80;38.50;;;;;;6142418;23;20905;-82
2022/05/20 13:42:38;;;;;;;3.83;3.17;;;40.70;38.90;;;;;;6116060;23;21290;-82
2022/05/20 13:45:08;;;;;;;3.73;3.43;;;40.40;40.70;;;;;;6121449;23;20982;-82
2022/05/20 13:50:23;;;;;;;6.03;3.03;;;41.60;39.40;;;;;;6116358;23;20544;-83
2022/05/20 13:52:50;;;;;;;6.67;3.23;;;41.70;39.40;;;;;;6107603;23;21019;-82
2022/05/20 13:55:20;;;;;;;5.53;3.20;;;41.40;38.70;;;;;;6114076;23;20439;-82
2022/05/20 13:57:50;;;;;;;4.83;3.20;;;40.90;39.00;;;;;;6115150;23;20507;-82
2022/05/20 14:00:27;;;;;;;3.80;3.10;;;40.80;39.80;;;;;;6116917;23;20482;-82
2022/05/20 14:02:56;;;;;;;3.70;3.40;;;40.60;39.00;;;;;;6120986;23;20916;-83
2022/05/20 14:05:28;;;;;;;4.67;3.40;;;40.60;38.90;;;;;;6119394;23;20548;-81
2022/05/20 14:07:58;;;;;;;4.27;3.27;;;40.30;38.50;;;;;;6117356;23;20819;-83
2022/05/20 14:10:34;;;;;;;4.00;3.53;;;40.00;39.30;;;;;;6108496;23;20585;-83
2022/05/20 14:13:04;;;;;;;4.97;3.60;;;39.50;39.80;;;;;;6107595;23;22266;-85
2022/05/20 14:15:41;;;;;;;4.03;3.63;;;39.80;40.20;;;;;;6116048;23;21045;-83
2022/05/20 14:18:15;;;;;;;8.50;3.27;;;40.10;38.80;;;;;;6108149;23;20495;-82
2022/05/20 14:20:48;;;;;;;4.03;3.30;;;40.10;39.40;;;;;;6116782;23;20883;-83
2022/05/20 14:23:17;;;;;;;5.13;3.03;;;39.30;39.50;;;;;;6111281;23;20429;-83
2022/05/20 14:25:59;;;;;;;6.07;3.10;;;39.20;39.50;;;;;;6112926;23;20468;-82
2022/05/20 14:28:41;;;;;;;3.97;3.17;;;38.20;40.30;;;;;;6117143;23;21364;-83
2022/05/20 14:31:24;;;;;;;4.40;3.47;;;37.20;41.10;;;;;;6114343;23;20508;-81
2022/05/20 14:33:56;;;;;;;5.13;4.63;;;36.00;46.00;;;;;;6106239;23;21011;-83
2022/05/20 14:36:23;;;;;;;5.47;4.97;;;34.90;52.70;;;;;;6108980;23;20469;-83
2022/05/20 14:38:54;;;;;;;6.90;4.90;;;34.10;56.00;;;;;;6129875;23;20533;-83
2022/05/20 14:41:26;;;;;;;5.80;4.70;;;33.40;58.00;;;;;;6138186;23;20526;-82
2022/05/20 14:43:56;;;;;;;5.33;4.67;;;32.90;59.30;;;;;;6128979;23;20448;-84
2022/05/20 14:49:21;;;;;;;6.40;4.67;;;32.40;59.90;;;;;;6148632;23;20527;-73
2022/05/20 14:51:55;;;;;;;6.90;4.73;;;32.10;60.80;;;;;;6139475;23;20440;-86
2022/05/20 14:54:26;;;;;;;5.97;4.60;;;31.70;60.00;;;;;;6133158;23;20437;-84
2022/05/20 14:56:55;;;;;;;5.50;4.80;;;31.30;60.60;;;;;;6145168;23;20760;-82
2022/05/20 14:59:32;;;;;;;5.70;5.10;;;30.90;61.50;;;;;;6134573;23;20552;-82
2022/05/20 15:01:59;;;;;;;5.40;4.60;;;30.50;62.40;;;;;;6146540;23;20503;-83
2022/05/20 15:04:26;;;;;;;5.70;5.20;;;30.30;62.50;;;;;;6142612;23;20437;-83
2022/05/20 15:06:59;;;;;;;5.07;4.57;;;30.70;62.80;;;;;;6125870;23;20445;-83
2022/05/20 15:09:32;;;;;;;6.83;4.00;;;31.50;62.10;;;;;;6138617;23;20520;-83
2022/05/20 15:12:01;;;;;;;7.43;5.17;;;32.80;60.00;;;;;;6144363;23;20446;-83